createdAt,value
2019-02-27T00:00:43.772Z,12.58
2019-02-27T00:01:31.223Z,10.78
2019-02-27T00:02:17.491Z,12.47
2019-02-27T00:03:05.069Z,11.57
2019-02-27T00:03:51.355Z,12.55
2019-02-27T00:04:37.816Z,11.20
2019-02-27T00:05:23.771Z,11.53
2019-02-27T00:06:12.864Z,11.97
2019-02-27T00:06:59.902Z,11.00
2019-02-27T00:07:46.740Z,10.85
2019-02-27T00:08:32.985Z,11.97
2019-02-27T00:09:18.961Z,12.80
2019-02-27T00:10:06.184Z,11.85
2019-02-27T00:10:53.066Z,10.93
2019-02-27T00:11:39.146Z,11.80
2019-02-27T00:12:25.525Z,11.15
2019-02-27T00:13:11.724Z,11.68
2019-02-27T00:13:58.572Z,11.30
2019-02-27T00:14:45.015Z,11.08
2019-02-27T00:15:31.635Z,11.55
2019-02-27T00:16:17.722Z,11.88
2019-02-27T00:17:04.307Z,11.22
2019-02-27T00:17:51.383Z,11.75
2019-02-27T00:18:39.443Z,11.45
2019-02-27T00:19:26.013Z,11.33
2019-02-27T00:20:12.800Z,10.00
2019-02-27T00:21:00.227Z,11.22
2019-02-27T00:21:46.638Z,10.28
2019-02-27T00:22:32.891Z,10.90
2019-02-27T00:23:23.708Z,11.30
2019-02-27T00:24:08.687Z,10.88
2019-02-27T00:24:55.294Z,10.85
2019-02-27T00:25:41.675Z,11.40
2019-02-27T00:26:27.847Z,10.88
2019-02-27T00:27:14.726Z,10.60
2019-02-27T00:28:03.307Z,11.50
2019-02-27T00:28:49.482Z,11.05
2019-02-27T00:29:35.791Z,10.78
2019-02-27T00:30:22.967Z,10.55
2019-02-27T00:31:11.414Z,10.80
2019-02-27T00:31:57.504Z,11.70
2019-02-27T00:32:43.668Z,10.10
2019-02-27T00:33:29.853Z,10.70
2019-02-27T00:34:16.509Z,10.90
2019-02-27T00:35:06.432Z,10.82
2019-02-27T00:35:52.013Z,10.98
2019-02-27T00:36:38.050Z,10.93
2019-02-27T00:37:24.088Z,10.38
2019-02-27T00:38:10.344Z,11.25
2019-02-27T00:38:57.946Z,10.70
2019-02-27T00:39:44.893Z,10.80
2019-02-27T00:40:32.958Z,11.20
2019-02-27T00:41:19.459Z,10.28
2019-02-27T00:42:33.320Z,11.45
2019-02-27T00:43:13.199Z,10.58
2019-02-27T00:44:01.371Z,10.58
2019-02-27T00:44:47.758Z,11.33
2019-02-27T00:45:34.249Z,10.63
2019-02-27T00:46:20.872Z,11.10
2019-02-27T00:47:07.666Z,12.23
2019-02-27T00:47:54.002Z,10.78
2019-02-27T00:48:40.768Z,11.35
2019-02-27T00:49:27.083Z,10.95
2019-02-27T00:50:13.346Z,10.50
2019-02-27T00:50:59.414Z,10.90
2019-02-27T00:51:45.551Z,10.80
2019-02-27T00:52:32.068Z,10.85
2019-02-27T00:53:17.939Z,10.00
2019-02-27T00:54:03.921Z,10.82
2019-02-27T00:54:49.886Z,10.63
2019-02-27T00:55:39.375Z,10.40
2019-02-27T00:56:25.587Z,11.00
2019-02-27T00:57:11.735Z,11.63
2019-02-27T00:57:58.666Z,10.58
2019-02-27T00:58:45.043Z,10.75
2019-02-27T00:59:33.127Z,10.98
2019-02-27T01:00:19.627Z,10.53
2019-02-27T01:01:13.947Z,10.38
2019-02-27T01:02:00.279Z,9.40
2019-02-27T01:02:46.603Z,10.80
2019-02-27T01:03:33.007Z,10.53
2019-02-27T01:04:19.064Z,10.88
2019-02-27T01:05:06.221Z,9.68
2019-02-27T01:05:54.145Z,10.78
2019-02-27T01:06:40.975Z,10.00
2019-02-27T01:07:31.188Z,10.23
2019-02-27T01:08:17.506Z,10.58
2019-02-27T01:09:06.364Z,10.13
2019-02-27T01:09:53.295Z,9.43
2019-02-27T01:10:39.217Z,11.08
2019-02-27T01:11:25.671Z,10.08
2019-02-27T01:12:12.283Z,10.13
2019-02-27T01:12:58.797Z,9.85
2019-02-27T01:13:45.038Z,10.10
2019-02-27T01:14:30.979Z,9.68
2019-02-27T01:15:16.957Z,9.65
2019-02-27T01:15:50.455Z,10.10
2019-02-27T01:16:36.518Z,9.70
2019-02-27T01:17:23.757Z,9.55
2019-02-27T01:18:10.836Z,9.05
2019-02-27T01:18:56.797Z,9.83
2019-02-27T01:19:43.641Z,9.83
2019-02-27T01:20:30.022Z,9.30
2019-02-27T01:21:19.211Z,9.75
2019-02-27T01:22:23.763Z,9.30
2019-02-27T01:23:15.127Z,9.20
2019-02-27T01:24:02.895Z,9.45
2019-02-27T01:24:50.098Z,8.78
2019-02-27T01:25:37.240Z,9.18
2019-02-27T01:26:23.298Z,9.90
2019-02-27T01:27:09.241Z,8.95
2019-02-27T01:27:55.234Z,9.28
2019-02-27T01:28:44.688Z,9.55
2019-02-27T01:29:29.423Z,9.08
2019-02-27T01:30:15.936Z,9.45
2019-02-27T01:31:03.711Z,8.75
2019-02-27T01:31:50.122Z,8.55
2019-02-27T01:32:36.547Z,9.25
2019-02-27T01:33:22.443Z,9.20
2019-02-27T01:34:11.281Z,9.15
2019-02-27T01:34:57.227Z,9.20
2019-02-27T01:35:43.215Z,8.98
2019-02-27T01:36:29.483Z,8.95
2019-02-27T01:37:15.337Z,9.25
2019-02-27T01:38:05.080Z,9.03
2019-02-27T01:38:50.194Z,8.63
2019-02-27T01:39:36.028Z,8.95
2019-02-27T01:40:22.058Z,9.08
2019-02-27T01:41:08.419Z,8.40
2019-02-27T01:41:55.249Z,8.90
2019-02-27T01:42:42.216Z,9.03
2019-02-27T01:43:28.680Z,8.90
2019-02-27T01:44:15.186Z,8.65
2019-02-27T01:45:01.066Z,9.13
2019-02-27T01:45:46.883Z,9.70
2019-02-27T01:46:32.717Z,9.03
2019-02-27T01:47:20.877Z,8.78
2019-02-27T01:48:08.982Z,8.88
2019-02-27T01:48:55.734Z,9.60
2019-02-27T01:49:42.064Z,8.33
2019-02-27T01:50:36.993Z,8.33
2019-02-27T01:51:28.916Z,8.60
2019-02-27T01:52:15.242Z,8.65
2019-02-27T01:53:01.175Z,8.48
2019-02-27T01:53:47.822Z,9.15
2019-02-27T01:54:34.038Z,8.60
2019-02-27T01:55:22.431Z,9.15
2019-02-27T01:56:08.544Z,8.40
2019-02-27T01:56:54.568Z,8.85
2019-02-27T01:57:41.234Z,9.05
2019-02-27T01:58:29.013Z,8.20
2019-02-27T01:59:16.903Z,8.93
2019-02-27T02:00:03.983Z,8.48
2019-02-27T02:00:50.195Z,8.20
2019-02-27T02:01:37.578Z,8.70
2019-02-27T02:02:23.961Z,9.08
2019-02-27T02:03:11.172Z,9.20
2019-02-27T02:04:05.040Z,8.05
2019-02-27T02:04:53.729Z,8.53
2019-02-27T02:05:40.168Z,8.93
2019-02-27T02:06:26.243Z,8.18
2019-02-27T02:07:12.667Z,8.88
2019-02-27T02:07:59.320Z,8.28
2019-02-27T02:08:48.037Z,8.25
2019-02-27T02:09:35.648Z,9.58
2019-02-27T02:10:21.851Z,8.90
2019-02-27T02:11:08.176Z,8.45
2019-02-27T02:11:54.391Z,8.50
2019-02-27T02:12:41.617Z,8.30
2019-02-27T02:14:01.941Z,9.05
2019-02-27T02:15:19.776Z,8.25
2019-02-27T02:16:43.959Z,8.53
2019-02-27T02:18:18.046Z,7.58
2019-02-27T02:19:54.038Z,8.30
2019-02-27T02:21:01.728Z,7.95
2019-02-27T02:22:38.935Z,8.95
2019-02-27T02:23:38.489Z,8.60
2019-02-27T02:25:01.174Z,8.88
2019-02-27T02:26:26.663Z,7.70
2019-02-27T02:27:39.138Z,8.95
2019-02-27T02:29:07.295Z,7.45
2019-02-27T02:30:30.935Z,7.85
2019-02-27T02:31:45.749Z,7.97
2019-02-27T02:32:57.412Z,8.65
2019-02-27T02:34:11.657Z,8.30
2019-02-27T02:35:20.700Z,7.70
2019-02-27T02:36:30.398Z,7.80
2019-02-27T02:37:58.126Z,8.20
2019-02-27T02:39:07.193Z,8.05
2019-02-27T02:40:30.830Z,8.50
2019-02-27T02:41:46.706Z,8.53
2019-02-27T02:43:24.583Z,7.95
2019-02-27T02:44:57.223Z,8.00
2019-02-27T02:46:09.789Z,7.65
2019-02-27T02:47:37.608Z,8.03
2019-02-27T02:48:47.955Z,7.75
2019-02-27T02:50:20.340Z,8.55
2019-02-27T02:51:53.871Z,7.72
2019-02-27T02:52:57.435Z,7.70
2019-02-27T02:54:21.626Z,8.05
2019-02-27T02:55:18.988Z,8.83
2019-02-27T02:56:48.403Z,7.87
2019-02-27T02:58:13.432Z,8.13
2019-02-27T02:59:36.313Z,8.40
2019-02-27T03:01:16.620Z,7.85
2019-02-27T03:02:14.832Z,8.15
2019-02-27T03:03:37.090Z,8.68
2019-02-27T03:04:57.907Z,8.25
2019-02-27T03:06:07.702Z,8.20
2019-02-27T03:07:38.278Z,8.58
2019-02-27T03:08:56.350Z,7.75
2019-02-27T03:10:27.734Z,8.13
2019-02-27T03:11:54.877Z,8.45
2019-02-27T03:13:17.637Z,8.18
2019-02-27T03:14:33.356Z,8.00
2019-02-27T03:16:05.716Z,8.15
2019-02-27T03:17:31.416Z,7.85
2019-02-27T03:19:05.105Z,7.42
2019-02-27T03:20:04.739Z,8.58
2019-02-27T03:21:20.903Z,8.53
2019-02-27T03:22:41.817Z,8.10
2019-02-27T03:23:57.065Z,7.72
2019-02-27T03:25:28.287Z,8.18
2019-02-27T03:26:53.005Z,8.13
2019-02-27T03:28:27.519Z,7.97
2019-02-27T03:29:52.213Z,8.43
2019-02-27T03:30:53.341Z,7.55
2019-02-27T03:31:57.737Z,7.37
2019-02-27T03:33:04.600Z,8.68
2019-02-27T03:34:32.128Z,8.20
2019-02-27T03:36:03.586Z,7.75
2019-02-27T03:37:19.983Z,8.28
2019-02-27T03:39:06.444Z,7.60
2019-02-27T03:40:45.119Z,7.70
2019-02-27T03:42:08.193Z,8.28
2019-02-27T03:43:23.641Z,7.45
2019-02-27T03:44:37.888Z,7.35
2019-02-27T03:45:50.788Z,7.25
2019-02-27T03:47:25.286Z,7.83
2019-02-27T03:48:50.765Z,7.30
2019-02-27T03:50:27.637Z,7.70
2019-02-27T03:51:24.689Z,7.35
2019-02-27T03:52:46.631Z,7.15
2019-02-27T03:53:49.865Z,7.22
2019-02-27T03:55:03.349Z,7.50
2019-02-27T03:56:16.083Z,7.42
2019-02-27T03:57:41.825Z,7.90
2019-02-27T03:58:40.315Z,7.25
2019-02-27T03:59:42.464Z,8.40
2019-02-27T04:00:54.151Z,7.55
2019-02-27T04:01:56.898Z,7.55
2019-02-27T04:03:23.670Z,7.40
2019-02-27T04:04:41.660Z,7.37
2019-02-27T04:05:57.740Z,7.67
2019-02-27T04:07:09.443Z,7.60
2019-02-27T04:08:09.773Z,7.58
2019-02-27T04:09:01.907Z,6.83
2019-02-27T04:09:48.192Z,7.25
2019-02-27T04:10:34.293Z,8.05
2019-02-27T04:11:20.549Z,7.30
2019-02-27T04:12:06.776Z,8.10
2019-02-27T04:12:53.780Z,8.35
2019-02-27T04:13:40.131Z,7.97
2019-02-27T04:14:27.916Z,8.43
2019-02-27T04:15:18.008Z,7.85
2019-02-27T04:16:03.478Z,6.95
2019-02-27T04:16:49.532Z,7.65
2019-02-27T04:17:34.852Z,7.72
2019-02-27T04:18:20.333Z,7.72
2019-02-27T04:19:06.843Z,7.10
2019-02-27T04:19:53.355Z,7.03
2019-02-27T04:20:39.552Z,7.00
2019-02-27T04:21:26.108Z,7.45
2019-02-27T04:22:12.446Z,6.83
2019-02-27T04:22:58.593Z,6.72
2019-02-27T04:23:49.039Z,7.58
2019-02-27T04:24:33.711Z,7.47
2019-02-27T04:25:19.763Z,6.72
2019-02-27T04:26:06.713Z,7.37
2019-02-27T04:26:53.084Z,6.78
2019-02-27T04:27:39.602Z,6.67
2019-02-27T04:28:29.534Z,7.40
2019-02-27T04:29:14.363Z,6.67
2019-02-27T04:30:00.543Z,7.22
2019-02-27T04:30:51.086Z,7.42
2019-02-27T04:31:35.203Z,7.20
2019-02-27T04:32:21.750Z,6.80
2019-02-27T04:33:08.389Z,7.10
2019-02-27T04:33:59.859Z,7.00
2019-02-27T04:34:43.466Z,7.20
2019-02-27T04:35:29.595Z,6.53
2019-02-27T04:36:19.116Z,6.55
2019-02-27T04:37:05.015Z,7.15
2019-02-27T04:37:54.122Z,6.10
2019-02-27T04:38:39.055Z,6.80
2019-02-27T04:39:24.995Z,6.70
2019-02-27T04:40:11.777Z,6.83
2019-02-27T04:40:58.427Z,7.05
2019-02-27T04:41:44.618Z,6.75
2019-02-27T04:42:31.163Z,6.90
2019-02-27T04:43:18.969Z,6.17
2019-02-27T04:44:06.055Z,6.47
2019-02-27T04:44:53.663Z,7.55
2019-02-27T04:45:40.063Z,6.10
2019-02-27T04:46:26.083Z,6.58
2019-02-27T04:47:12.279Z,6.03
2019-02-27T04:47:58.538Z,6.33
2019-02-27T04:48:46.026Z,6.67
2019-02-27T04:49:34.800Z,6.37
2019-02-27T04:50:20.725Z,6.62
2019-02-27T04:51:07.125Z,6.33
2019-02-27T04:51:54.243Z,5.97
2019-02-27T04:52:40.821Z,6.33
2019-02-27T04:53:31.588Z,5.95
2019-02-27T04:54:16.215Z,6.53
2019-02-27T04:55:02.119Z,6.42
2019-02-27T04:55:50.559Z,6.10
2019-02-27T04:56:36.251Z,6.20
2019-02-27T04:57:22.278Z,6.22
2019-02-27T04:58:09.549Z,6.10
2019-02-27T04:58:56.211Z,6.30
2019-02-27T04:59:42.303Z,6.08
2019-02-27T05:00:28.399Z,6.28
2019-02-27T05:01:16.031Z,6.10
2019-02-27T05:02:03.347Z,6.65
2019-02-27T05:02:50.474Z,6.33
2019-02-27T05:03:37.663Z,6.55
2019-02-27T05:04:23.708Z,5.95
2019-02-27T05:05:10.124Z,5.97
2019-02-27T05:05:56.326Z,5.78
2019-02-27T05:06:46.857Z,6.60
2019-02-27T05:07:32.080Z,5.92
2019-02-27T05:08:18.559Z,6.67
2019-02-27T05:09:06.237Z,6.10
2019-02-27T05:09:52.673Z,6.35
2019-02-27T05:10:40.525Z,6.03
2019-02-27T05:11:27.075Z,6.60
2019-02-27T05:12:13.322Z,7.37
2019-02-27T05:13:00.087Z,6.70
2019-02-27T05:13:46.477Z,6.45
2019-02-27T05:14:32.544Z,6.35
2019-02-27T05:15:18.604Z,6.45
2019-02-27T05:16:04.799Z,6.60
2019-02-27T05:16:51.158Z,6.45
2019-02-27T05:17:37.179Z,5.90
2019-02-27T05:18:23.071Z,6.67
2019-02-27T05:19:09.408Z,6.42
2019-02-27T05:19:56.347Z,6.92
2019-02-27T05:20:44.948Z,6.50
2019-02-27T05:21:30.946Z,6.80
2019-02-27T05:22:16.827Z,6.83
2019-02-27T05:23:02.850Z,6.60
2019-02-27T05:23:49.337Z,5.72
2019-02-27T05:24:35.720Z,6.60
2019-02-27T05:25:21.674Z,6.70
2019-02-27T05:26:07.999Z,6.00
2019-02-27T05:26:54.402Z,6.47
2019-02-27T05:27:40.777Z,6.37
2019-02-27T05:28:27.312Z,7.03
2019-02-27T05:29:13.534Z,6.45
2019-02-27T05:30:00.080Z,6.12
2019-02-27T05:30:46.298Z,6.53
2019-02-27T05:31:34.474Z,6.33
2019-02-27T05:32:20.809Z,6.25
2019-02-27T05:33:06.621Z,6.60
2019-02-27T05:33:52.545Z,6.05
2019-02-27T05:34:40.323Z,6.60
2019-02-27T05:35:26.781Z,6.37
2019-02-27T05:36:19.045Z,6.95
2019-02-27T05:37:06.213Z,6.42
2019-02-27T05:37:52.486Z,7.05
2019-02-27T05:38:41.068Z,7.50
2019-02-27T05:39:26.655Z,6.80
2019-02-27T05:40:14.164Z,6.20
2019-02-27T05:41:00.699Z,6.87
2019-02-27T05:41:47.848Z,6.92
2019-02-27T05:42:38.610Z,6.95
2019-02-27T05:43:22.647Z,6.70
2019-02-27T05:44:08.691Z,6.47
2019-02-27T05:44:55.915Z,7.40
2019-02-27T05:45:43.363Z,6.90
2019-02-27T05:46:29.564Z,6.85
2019-02-27T05:47:15.354Z,6.90
2019-02-27T05:48:01.415Z,6.58
2019-02-27T05:48:47.588Z,6.35
2019-02-27T05:49:46.531Z,6.80
2019-02-27T05:50:34.266Z,7.33
2019-02-27T05:51:20.927Z,6.33
2019-02-27T05:52:07.005Z,6.72
2019-02-27T05:52:54.094Z,6.30
2019-02-27T05:53:40.511Z,6.92
2019-02-27T05:54:26.632Z,7.17
2019-02-27T05:55:12.636Z,6.33
2019-02-27T05:55:59.074Z,6.83
2019-02-27T05:56:47.191Z,6.65
2019-02-27T05:57:34.790Z,6.92
2019-02-27T05:58:22.998Z,7.03
2019-02-27T05:59:09.845Z,6.55
2019-02-27T05:59:56.296Z,7.20
2019-02-27T06:00:42.401Z,6.42
2019-02-27T06:01:28.475Z,6.80
2019-02-27T06:02:15.535Z,6.92
2019-02-27T06:03:04.611Z,7.08
2019-02-27T06:03:52.241Z,6.50
2019-02-27T06:04:38.976Z,7.05
2019-02-27T06:05:28.502Z,7.35
2019-02-27T06:06:14.460Z,7.17
2019-02-27T06:07:01.526Z,7.55
2019-02-27T06:07:47.791Z,6.80
2019-02-27T06:08:35.837Z,6.90
2019-02-27T06:09:21.786Z,7.12
2019-02-27T06:10:11.668Z,6.97
2019-02-27T06:10:57.632Z,6.85
2019-02-27T06:11:46.212Z,6.87
2019-02-27T06:12:32.438Z,6.50
2019-02-27T06:13:18.428Z,6.75
2019-02-27T06:14:04.803Z,6.50
2019-02-27T06:14:54.804Z,6.83
2019-02-27T06:15:39.118Z,6.60
2019-02-27T06:16:25.058Z,6.60
2019-02-27T06:17:12.810Z,6.35
2019-02-27T06:17:58.773Z,6.75
2019-02-27T06:18:56.027Z,6.22
2019-02-27T06:19:40.457Z,6.78
2019-02-27T06:20:26.819Z,7.12
2019-02-27T06:21:16.400Z,6.47
2019-02-27T06:22:05.862Z,6.17
2019-02-27T06:22:52.282Z,6.70
2019-02-27T06:23:38.795Z,6.62
2019-02-27T06:24:24.882Z,6.55
2019-02-27T06:25:13.800Z,6.67
2019-02-27T06:26:00.237Z,6.67
2019-02-27T06:26:46.456Z,6.33
2019-02-27T06:27:32.536Z,6.95
2019-02-27T06:28:19.332Z,6.35
2019-02-27T06:29:05.735Z,6.55
2019-02-27T06:29:56.632Z,6.62
2019-02-27T06:30:40.988Z,6.65
2019-02-27T06:31:27.078Z,6.87
2019-02-27T06:32:13.275Z,6.58
2019-02-27T06:33:01.703Z,6.70
2019-02-27T06:33:48.830Z,6.47
2019-02-27T06:34:35.115Z,6.85
2019-02-27T06:35:21.428Z,7.10
2019-02-27T06:36:08.548Z,6.60
2019-02-27T06:36:54.956Z,6.35
2019-02-27T06:37:43.846Z,7.15
2019-02-27T06:38:29.576Z,6.55
2019-02-27T06:39:16.141Z,6.15
2019-02-27T06:40:04.786Z,6.80
2019-02-27T06:40:50.427Z,6.62
2019-02-27T06:41:36.582Z,7.60
2019-02-27T06:42:22.791Z,7.35
2019-02-27T06:43:09.397Z,6.15
2019-02-27T06:43:58.942Z,6.92
2019-02-27T06:44:44.710Z,6.85
2019-02-27T06:45:32.322Z,6.62
2019-02-27T06:46:20.093Z,6.33
2019-02-27T06:47:07.273Z,6.45
2019-02-27T06:47:53.411Z,5.87
2019-02-27T06:48:43.060Z,6.47
2019-02-27T06:49:27.816Z,6.70
2019-02-27T06:50:14.424Z,5.92
2019-02-27T06:51:02.163Z,5.92
2019-02-27T06:51:48.419Z,6.37
2019-02-27T06:52:34.503Z,5.83
2019-02-27T06:53:20.445Z,6.10
2019-02-27T06:54:06.547Z,6.75
2019-02-27T06:54:52.930Z,6.17
2019-02-27T06:55:39.201Z,6.67
2019-02-27T06:56:25.231Z,6.45
2019-02-27T06:57:11.390Z,6.70
2019-02-27T06:57:58.474Z,6.15
2019-02-27T06:58:47.528Z,6.42
2019-02-27T06:59:34.141Z,6.03
2019-02-27T07:00:20.701Z,6.60
2019-02-27T07:01:09.310Z,6.30
2019-02-27T07:01:58.471Z,6.28
2019-02-27T07:02:44.859Z,6.22
2019-02-27T07:03:32.892Z,6.15
2019-02-27T07:04:18.792Z,6.10
2019-02-27T07:05:06.904Z,6.37
2019-02-27T07:05:53.185Z,6.00
2019-02-27T07:06:39.688Z,6.67
2019-02-27T07:07:25.798Z,6.03
2019-02-27T07:08:11.675Z,6.30
2019-02-27T07:09:00.555Z,6.58
2019-02-27T07:09:46.954Z,6.37
2019-02-27T07:10:33.406Z,6.87
2019-02-27T07:11:20.723Z,6.50
2019-02-27T07:12:07.303Z,5.92
2019-02-27T07:12:54.696Z,5.92
2019-02-27T07:13:41.273Z,6.78
2019-02-27T07:14:27.680Z,6.30
2019-02-27T07:15:15.681Z,7.03
2019-02-27T07:16:03.244Z,6.72
2019-02-27T07:16:49.301Z,5.70
2019-02-27T07:17:35.365Z,6.45
2019-02-27T07:18:22.471Z,6.50
2019-02-27T07:19:08.743Z,6.87
2019-02-27T07:19:54.674Z,6.33
2019-02-27T07:20:46.203Z,6.50
2019-02-27T07:21:32.957Z,6.30
2019-02-27T07:22:20.169Z,6.53
2019-02-27T07:23:07.631Z,7.12
2019-02-27T07:23:57.692Z,6.65
2019-02-27T07:24:42.188Z,6.55
2019-02-27T07:25:29.773Z,6.90
2019-02-27T07:26:16.627Z,6.72
2019-02-27T07:27:03.086Z,6.55
2019-02-27T07:27:49.843Z,6.30
2019-02-27T07:28:36.447Z,7.08
2019-02-27T07:29:27.354Z,6.42
2019-02-27T07:30:13.437Z,6.78
2019-02-27T07:30:59.573Z,6.40
2019-02-27T07:31:46.044Z,6.92
2019-02-27T07:32:32.180Z,6.53
2019-02-27T07:33:18.676Z,7.00
2019-02-27T07:34:05.314Z,7.28
2019-02-27T07:34:51.883Z,7.17
2019-02-27T07:35:38.540Z,6.53
2019-02-27T07:36:25.339Z,6.75
2019-02-27T07:37:12.978Z,6.70
2019-02-27T07:37:59.756Z,6.78
2019-02-27T07:38:46.299Z,6.25
2019-02-27T07:39:32.790Z,6.95
2019-02-27T07:40:20.028Z,6.78
2019-02-27T07:41:06.893Z,6.40
2019-02-27T07:41:53.178Z,7.42
2019-02-27T07:42:39.423Z,7.15
2019-02-27T07:43:25.431Z,7.17
2019-02-27T07:44:11.746Z,6.85
2019-02-27T07:44:58.315Z,7.10
2019-02-27T07:45:45.464Z,6.58
2019-02-27T07:46:32.552Z,7.83
2019-02-27T07:47:31.350Z,7.87
2019-02-27T07:48:17.292Z,7.28
2019-02-27T07:49:03.203Z,6.78
2019-02-27T07:49:49.592Z,7.50
2019-02-27T07:50:35.464Z,7.62
2019-02-27T07:51:23.286Z,7.78
2019-02-27T07:52:13.030Z,7.08
2019-02-27T07:52:59.018Z,7.97
2019-02-27T07:53:46.338Z,7.45
2019-02-27T07:54:33.756Z,7.50
2019-02-27T07:55:22.869Z,8.38
2019-02-27T07:56:08.182Z,7.85
2019-02-27T07:56:54.534Z,8.13
2019-02-27T07:57:40.916Z,8.18
2019-02-27T07:58:29.273Z,8.13
2019-02-27T07:59:15.183Z,8.98
2019-02-27T08:00:05.455Z,8.05
2019-02-27T08:00:51.524Z,7.60
2019-02-27T08:01:43.635Z,7.92
2019-02-27T08:02:27.027Z,8.25
2019-02-27T08:03:13.152Z,7.80
2019-02-27T08:03:59.274Z,7.87
2019-02-27T08:04:45.183Z,8.10
2019-02-27T08:05:31.225Z,8.23
2019-02-27T08:06:17.649Z,8.10
2019-02-27T08:07:06.142Z,8.65
2019-02-27T08:07:52.198Z,8.03
2019-02-27T08:08:38.523Z,8.78
2019-02-27T08:09:24.811Z,8.55
2019-02-27T08:10:16.055Z,8.90
2019-02-27T08:11:03.290Z,8.38
2019-02-27T08:11:49.685Z,8.40
2019-02-27T08:12:35.763Z,8.80
2019-02-27T08:13:21.590Z,7.87
2019-02-27T08:14:07.498Z,8.45
2019-02-27T08:15:09.047Z,8.65
2019-02-27T08:15:54.945Z,8.23
2019-02-27T08:16:40.856Z,7.90
2019-02-27T08:17:27.347Z,8.18
2019-02-27T08:18:13.390Z,8.63
2019-02-27T08:18:59.709Z,8.37
2019-02-27T08:19:46.153Z,8.60
2019-02-27T08:20:32.298Z,7.92
2019-02-27T08:21:19.325Z,8.75
2019-02-27T08:22:05.649Z,8.63
2019-02-27T08:22:52.753Z,8.88
2019-02-27T08:23:39.131Z,8.58
2019-02-27T08:24:26.631Z,8.43
2019-02-27T08:25:13.072Z,7.97
2019-02-27T08:25:59.227Z,8.88
2019-02-27T08:26:45.140Z,7.85
2019-02-27T08:27:31.094Z,8.88
2019-02-27T08:28:18.767Z,8.30
2019-02-27T08:29:05.020Z,9.40
2019-02-27T08:29:50.926Z,9.03
2019-02-27T08:30:36.855Z,8.25
2019-02-27T08:31:22.819Z,9.45
2019-02-27T08:32:09.159Z,9.55
2019-02-27T08:32:55.658Z,8.93
2019-02-27T08:33:43.540Z,8.95
2019-02-27T08:34:29.855Z,9.43
2019-02-27T08:35:16.754Z,8.50
2019-02-27T08:36:03.440Z,9.45
2019-02-27T08:36:49.978Z,8.37
2019-02-27T08:37:36.080Z,8.75
2019-02-27T08:38:23.605Z,9.40
2019-02-27T08:39:10.217Z,9.55
2019-02-27T08:39:56.454Z,9.08
2019-02-27T08:40:43.139Z,9.18
2019-02-27T08:41:31.471Z,8.70
2019-02-27T08:42:18.526Z,9.53
2019-02-27T08:43:04.605Z,9.73
2019-02-27T08:43:51.466Z,9.58
2019-02-27T08:44:37.816Z,8.75
2019-02-27T08:45:27.102Z,9.25
2019-02-27T08:46:13.499Z,9.58
2019-02-27T08:46:59.523Z,9.53
2019-02-27T08:47:45.650Z,8.97
2019-02-27T08:48:31.784Z,8.70
2019-02-27T08:49:18.424Z,8.40
2019-02-27T08:50:08.228Z,9.30
2019-02-27T08:50:54.591Z,8.90
2019-02-27T08:51:42.147Z,8.97
2019-02-27T08:52:28.719Z,9.97
2019-02-27T08:53:17.215Z,8.97
2019-02-27T08:54:04.536Z,9.20
2019-02-27T08:54:50.931Z,9.10
2019-02-27T08:55:39.232Z,10.07
2019-02-27T08:56:25.913Z,9.97
2019-02-27T08:57:11.860Z,9.20
2019-02-27T08:57:57.928Z,9.40
2019-02-27T08:58:45.444Z,9.70
2019-02-27T08:59:31.782Z,8.93
2019-02-27T09:00:20.181Z,9.40
2019-02-27T09:01:08.103Z,9.83
2019-02-27T09:01:56.331Z,9.33
2019-02-27T09:02:42.484Z,10.07
2019-02-27T09:03:28.467Z,8.93
2019-02-27T09:04:14.778Z,10.00
2019-02-27T09:05:01.215Z,10.07
2019-02-27T09:05:47.686Z,9.70
2019-02-27T09:06:33.562Z,9.83
2019-02-27T09:07:19.583Z,9.10
2019-02-27T09:08:07.383Z,10.13
2019-02-27T09:08:53.403Z,9.37
2019-02-27T09:09:39.371Z,9.17
2019-02-27T09:10:29.380Z,9.20
2019-02-27T09:11:14.798Z,10.75
2019-02-27T09:12:03.085Z,10.25
2019-02-27T09:12:51.680Z,9.35
2019-02-27T09:13:37.724Z,9.95
2019-02-27T09:14:24.205Z,10.32
2019-02-27T09:15:12.301Z,10.40
2019-02-27T09:15:59.780Z,10.65
2019-02-27T09:16:46.035Z,9.58
2019-02-27T09:17:31.970Z,9.58
2019-02-27T09:18:18.019Z,10.00
2019-02-27T09:19:09.293Z,10.45
2019-02-27T09:19:53.403Z,9.95
2019-02-27T09:20:39.852Z,9.90
2019-02-27T09:21:27.908Z,9.40
2019-02-27T09:22:15.077Z,10.10
2019-02-27T09:23:01.359Z,10.82
2019-02-27T09:23:47.511Z,10.00
2019-02-27T09:24:33.355Z,10.08
2019-02-27T09:25:23.587Z,10.35
2019-02-27T09:26:08.384Z,10.20
2019-02-27T09:26:54.619Z,10.65
2019-02-27T09:27:40.523Z,10.20
2019-02-27T09:28:28.622Z,10.50
2019-02-27T09:29:18.461Z,10.10
2019-02-27T09:30:02.817Z,9.88
2019-02-27T09:30:50.180Z,10.28
2019-02-27T09:31:38.463Z,8.83
2019-02-27T09:32:25.003Z,9.40
2019-02-27T09:33:10.986Z,10.03
2019-02-27T09:33:57.942Z,9.65
2019-02-27T09:34:44.230Z,9.88
2019-02-27T09:35:34.498Z,9.18
2019-02-27T09:36:18.218Z,9.65
2019-02-27T09:37:04.363Z,9.80
2019-02-27T09:37:51.217Z,10.03
2019-02-27T09:38:38.114Z,9.50
2019-02-27T09:39:23.983Z,9.85
2019-02-27T09:40:12.907Z,10.90
2019-02-27T09:41:00.098Z,10.08
2019-02-27T09:41:47.093Z,10.05
2019-02-27T09:42:34.383Z,9.53
2019-02-27T09:43:20.633Z,10.20
2019-02-27T09:44:06.987Z,9.75
2019-02-27T09:44:53.478Z,9.38
2019-02-27T09:45:40.852Z,9.48
2019-02-27T09:46:29.171Z,9.38
2019-02-27T09:47:15.506Z,9.43
2019-02-27T09:48:01.498Z,9.00
2019-02-27T09:48:47.970Z,9.53
2019-02-27T09:49:34.324Z,9.68
2019-02-27T09:50:32.094Z,9.85
2019-02-27T09:51:19.116Z,9.25
2019-02-27T09:52:06.305Z,10.68
2019-02-27T09:52:52.802Z,9.95
2019-02-27T09:53:39.219Z,10.40
2019-02-27T09:54:25.571Z,9.40
2019-02-27T09:55:12.826Z,9.68
2019-02-27T09:56:00.927Z,10.00
2019-02-27T09:56:47.255Z,10.15
2019-02-27T09:57:35.303Z,10.23
2019-02-27T09:58:22.672Z,10.05
2019-02-27T09:59:09.199Z,10.55
2019-02-27T09:59:56.178Z,10.00
2019-02-27T10:00:44.764Z,10.13
2019-02-27T10:01:34.442Z,9.65
2019-02-27T10:02:20.089Z,9.93
2019-02-27T10:03:06.323Z,9.93
2019-02-27T10:03:55.314Z,10.18
2019-02-27T10:04:41.312Z,10.05
2019-02-27T10:05:27.450Z,10.38
2019-02-27T10:06:13.887Z,10.53
2019-02-27T10:07:01.071Z,10.18
2019-02-27T10:07:48.438Z,10.03
2019-02-27T10:08:35.183Z,10.15
2019-02-27T10:09:21.238Z,10.35
2019-02-27T10:10:10.207Z,10.03
2019-02-27T10:10:55.378Z,10.50
2019-02-27T10:11:42.607Z,9.93
2019-02-27T10:12:29.112Z,10.05
2019-02-27T10:13:15.311Z,10.55
2019-02-27T10:14:01.260Z,9.90
2019-02-27T10:14:47.958Z,10.53
2019-02-27T10:15:35.320Z,9.53
2019-02-27T10:16:21.473Z,10.05
2019-02-27T10:17:09.116Z,10.30
2019-02-27T10:17:55.371Z,10.82
2019-02-27T10:18:41.326Z,9.93
2019-02-27T10:19:27.761Z,9.48
2019-02-27T10:20:15.194Z,10.28
2019-02-27T10:21:02.527Z,9.28
2019-02-27T10:21:48.978Z,9.93
2019-02-27T10:22:35.287Z,10.08
2019-02-27T10:23:21.532Z,9.73
2019-02-27T10:24:07.486Z,9.53
2019-02-27T10:24:53.351Z,9.78
2019-02-27T10:25:43.209Z,10.32
2019-02-27T10:26:27.679Z,9.88
2019-02-27T10:27:15.082Z,9.83
2019-02-27T10:28:04.393Z,9.43
2019-02-27T10:28:49.300Z,9.70
2019-02-27T10:29:36.889Z,9.93
2019-02-27T10:30:23.234Z,9.55
2019-02-27T10:31:09.635Z,9.40
2019-02-27T10:31:58.222Z,10.85
2019-02-27T10:32:43.922Z,9.93
2019-02-27T10:33:31.406Z,9.78
2019-02-27T10:34:18.298Z,10.03
2019-02-27T10:35:05.143Z,10.40
2019-02-27T10:35:51.067Z,10.00
2019-02-27T10:36:39.190Z,10.03
2019-02-27T10:37:24.886Z,10.15
2019-02-27T10:38:11.419Z,10.00
2019-02-27T10:38:59.446Z,9.68
2019-02-27T10:39:48.690Z,9.15
2019-02-27T10:40:36.118Z,9.53
2019-02-27T10:41:22.446Z,9.98
2019-02-27T10:42:10.013Z,9.80
2019-02-27T10:42:56.270Z,9.50
2019-02-27T10:43:42.167Z,9.28
2019-02-27T10:44:28.106Z,8.88
2019-02-27T10:45:14.566Z,10.20
2019-02-27T10:46:00.995Z,10.45
2019-02-27T10:46:47.175Z,9.65
2019-02-27T10:47:33.686Z,9.85
2019-02-27T10:48:21.513Z,10.00
2019-02-27T10:49:07.706Z,9.50
2019-02-27T10:49:53.816Z,9.03
2019-02-27T10:50:40.071Z,10.63
2019-02-27T10:51:26.443Z,9.98
2019-02-27T10:52:12.778Z,9.15
2019-02-27T10:53:00.512Z,9.20
2019-02-27T10:53:46.772Z,9.48
2019-02-27T10:54:32.782Z,9.25
2019-02-27T10:55:18.727Z,9.10
2019-02-27T10:56:06.486Z,9.05
2019-02-27T10:56:52.875Z,8.60
2019-02-27T10:57:39.325Z,9.25
2019-02-27T10:58:25.403Z,9.08
2019-02-27T10:59:11.680Z,8.85
2019-02-27T10:59:58.231Z,8.90
2019-02-27T11:00:46.526Z,9.15
2019-02-27T11:01:33.202Z,8.73
2019-02-27T11:02:23.428Z,8.75
2019-02-27T11:03:09.978Z,9.05
2019-02-27T11:03:56.306Z,8.95
2019-02-27T11:04:42.327Z,8.60
2019-02-27T11:05:29.427Z,9.73
2019-02-27T11:06:15.371Z,8.15
2019-02-27T11:07:01.687Z,9.03
2019-02-27T11:07:52.987Z,8.40
2019-02-27T11:08:40.019Z,7.97
2019-02-27T11:09:27.784Z,8.70